createdAt,value
2022-10-05T00:00:18.775Z,9.77
2022-10-05T00:02:46.720Z,8.70
2022-10-05T00:05:21.858Z,7.85
2022-10-05T00:07:48.786Z,9.43
2022-10-05T00:10:18.314Z,9.52
2022-10-05T00:12:48.280Z,8.45
2022-10-05T00:15:23.977Z,8.40
2022-10-05T00:17:52.351Z,9.00
2022-10-05T00:20:25.069Z,9.10
2022-10-05T00:23:01.434Z,7.78
2022-10-05T00:25:28.544Z,8.50
2022-10-05T00:28:01.341Z,7.13
2022-10-05T00:30:34.593Z,9.80
2022-10-05T00:33:02.677Z,16.90
2022-10-05T00:35:32.640Z,9.18
2022-10-05T00:37:59.363Z,10.65
2022-10-05T00:40:48.343Z,8.32
2022-10-05T00:43:38.263Z,7.88
2022-10-05T00:46:23.591Z,7.97
2022-10-05T00:49:17.667Z,10.90
2022-10-05T00:51:53.433Z,11.63
2022-10-05T00:54:36.538Z,8.75
2022-10-05T00:57:38.499Z,10.40
2022-10-05T01:00:09.576Z,6.90
2022-10-05T01:02:39.053Z,8.38
2022-10-05T01:05:32.615Z,8.35
2022-10-05T01:08:42.827Z,9.45
2022-10-05T01:11:26.800Z,7.47
2022-10-05T01:14:12.973Z,9.60
2022-10-05T01:17:00.069Z,8.95
2022-10-05T01:19:42.803Z,7.43
2022-10-05T01:22:40.393Z,8.07
2022-10-05T01:25:42.783Z,6.53
2022-10-05T01:28:32.145Z,8.55
2022-10-05T01:31:03.929Z,10.45
2022-10-05T01:33:39.525Z,8.45
2022-10-05T01:36:20.266Z,6.18
2022-10-05T01:39:05.415Z,11.85
2022-10-05T01:41:41.162Z,7.05
2022-10-05T01:44:21.797Z,9.30
2022-10-05T01:47:07.145Z,6.53
2022-10-05T01:49:39.046Z,10.23
2022-10-05T01:52:13.123Z,9.48
2022-10-05T01:57:06.425Z,9.45
2022-10-05T01:59:51.229Z,11.50
2022-10-05T02:02:20.738Z,11.27
2022-10-05T02:05:11.316Z,10.93
2022-10-05T02:07:50.009Z,8.38
2022-10-05T02:10:37.236Z,10.25
2022-10-05T02:13:13.031Z,7.25
2022-10-05T02:15:57.677Z,8.02
2022-10-05T02:18:40.700Z,7.80
2022-10-05T02:21:10.293Z,8.82
2022-10-05T02:23:41.408Z,11.35
2022-10-05T02:26:12.077Z,10.27
2022-10-05T02:28:53.649Z,8.25
2022-10-05T02:31:34.919Z,7.50
2022-10-05T02:34:23.339Z,11.40
2022-10-05T02:37:01.934Z,8.27
2022-10-05T02:39:40.151Z,7.15
2022-10-05T02:42:53.139Z,8.75
2022-10-05T02:45:26.303Z,10.57
2022-10-05T02:47:58.619Z,9.30
2022-10-05T02:50:45.677Z,9.63
2022-10-05T02:53:32.641Z,9.27
2022-10-05T02:56:37.494Z,10.60
2022-10-05T02:59:55.797Z,8.25
2022-10-05T03:02:41.328Z,7.10
2022-10-05T03:05:38.944Z,10.60
2022-10-05T03:08:34.272Z,8.43
2022-10-05T03:11:31.857Z,11.07
2022-10-05T03:14:24.863Z,7.47
2022-10-05T03:17:09.989Z,8.65
2022-10-05T03:20:14.403Z,8.15
2022-10-05T03:22:47.185Z,9.93
2022-10-05T03:25:29.156Z,9.38
2022-10-05T03:28:03.540Z,8.73
2022-10-05T03:30:42.763Z,9.80
2022-10-05T03:33:19.020Z,11.70
2022-10-05T03:35:56.737Z,12.38
2022-10-05T03:38:42.364Z,10.77
2022-10-05T03:41:20.334Z,8.07
2022-10-05T03:44:02.072Z,11.52
2022-10-05T03:46:43.010Z,10.43
2022-10-05T03:49:34.110Z,9.68
2022-10-05T03:52:11.213Z,10.82
2022-10-05T03:55:00.128Z,10.50
2022-10-05T03:57:32.239Z,18.15
2022-10-05T04:00:06.465Z,13.52
2022-10-05T04:02:45.428Z,9.10
2022-10-05T04:05:22.958Z,8.68
2022-10-05T04:07:59.808Z,11.63
2022-10-05T04:10:45.516Z,11.27
2022-10-05T04:13:41.401Z,9.80
2022-10-05T04:16:31.457Z,13.35
2022-10-05T04:19:14.733Z,11.90
2022-10-05T04:21:51.693Z,11.63
2022-10-05T04:24:39.187Z,9.57
2022-10-05T04:27:21.784Z,12.13
2022-10-05T04:30:12.963Z,27.92
2022-10-05T04:32:42.643Z,8.52
2022-10-05T04:35:40.116Z,10.80
2022-10-05T04:38:33.393Z,9.43
2022-10-05T04:41:03.257Z,9.90
2022-10-05T04:43:32.885Z,10.80
2022-10-05T04:46:04.685Z,10.98
2022-10-05T04:48:59.998Z,13.68
2022-10-05T04:51:33.796Z,12.90
2022-10-05T04:54:31.456Z,9.20
2022-10-05T04:57:07.078Z,13.10
2022-10-05T04:59:52.153Z,9.23
2022-10-05T05:02:56.244Z,9.13
2022-10-05T05:06:05.151Z,11.18
2022-10-05T05:08:52.504Z,9.40
2022-10-05T05:11:55.231Z,10.50
2022-10-05T05:14:22.010Z,12.32
2022-10-05T05:17:09.642Z,10.27
2022-10-05T05:20:09.702Z,10.77
2022-10-05T05:22:55.263Z,9.35
2022-10-05T05:25:45.823Z,10.45
2022-10-05T05:28:44.134Z,10.15
2022-10-05T05:31:28.025Z,10.18
2022-10-05T05:34:32.109Z,10.52
2022-10-05T05:37:12.640Z,11.23
2022-10-05T05:39:59.844Z,10.63
2022-10-05T05:42:51.592Z,11.05
2022-10-05T05:45:32.524Z,16.90
2022-10-05T05:48:02.964Z,16.02
2022-10-05T05:50:52.877Z,16.60
2022-10-05T05:53:32.009Z,15.18
2022-10-05T05:56:11.051Z,14.65
2022-10-05T05:58:58.652Z,12.65
2022-10-05T06:01:45.244Z,10.68
2022-10-05T06:04:46.790Z,12.95
2022-10-05T06:07:18.962Z,9.60
2022-10-05T06:10:24.865Z,15.70
2022-10-05T06:13:03.558Z,12.70
2022-10-05T06:15:40.998Z,11.90
2022-10-05T06:18:26.941Z,13.13
2022-10-05T06:21:02.237Z,13.13
2022-10-05T06:23:45.880Z,12.55
2022-10-05T06:26:43.729Z,10.43
2022-10-05T06:29:20.118Z,10.68
2022-10-05T06:32:03.190Z,10.00
2022-10-05T06:34:42.176Z,11.57
2022-10-05T06:37:37.782Z,19.17
2022-10-05T06:40:36.629Z,11.52
2022-10-05T06:43:06.728Z,13.85
2022-10-05T06:46:05.921Z,16.02
2022-10-05T06:49:14.664Z,14.27
2022-10-05T06:51:52.792Z,12.02
2022-10-05T06:54:33.431Z,13.88
2022-10-05T06:57:21.701Z,14.35
2022-10-05T07:00:01.004Z,14.10
2022-10-05T07:02:39.095Z,14.00
2022-10-05T07:05:31.512Z,13.88
2022-10-05T07:08:09.409Z,13.82
2022-10-05T07:10:45.332Z,14.07
2022-10-05T07:13:50.784Z,15.35
2022-10-05T07:16:52.847Z,12.80
2022-10-05T07:19:31.223Z,13.82
2022-10-05T07:22:34.480Z,13.73
2022-10-05T07:25:13.364Z,14.52
2022-10-05T07:28:07.895Z,13.23
2022-10-05T07:31:11.064Z,15.38
2022-10-05T07:34:07.204Z,17.65
2022-10-05T07:37:01.582Z,13.95
2022-10-05T07:40:00.600Z,18.88
2022-10-05T07:42:54.289Z,14.93
2022-10-05T07:45:41.149Z,15.73
2022-10-05T07:48:18.802Z,16.25
2022-10-05T07:50:57.548Z,17.70
2022-10-05T07:53:46.325Z,17.10
2022-10-05T07:56:38.006Z,15.77
2022-10-05T07:59:13.917Z,14.18
2022-10-05T08:01:48.076Z,15.50
2022-10-05T08:04:20.744Z,17.30
2022-10-05T08:06:53.382Z,16.98
2022-10-05T08:09:57.739Z,16.08
2022-10-05T08:12:35.745Z,17.08
2022-10-05T08:15:11.841Z,14.00
2022-10-05T08:17:53.614Z,20.00
2022-10-05T08:20:35.416Z,15.52
2022-10-05T08:23:24.600Z,16.77
2022-10-05T08:26:14.737Z,16.27
2022-10-05T08:29:13.793Z,13.80
2022-10-05T08:31:46.340Z,13.57
2022-10-05T08:34:40.739Z,14.80
2022-10-05T08:37:28.477Z,12.70
2022-10-05T08:40:04.445Z,12.82
2022-10-05T08:42:49.037Z,13.57
2022-10-05T08:45:49.047Z,13.45
2022-10-05T08:48:34.384Z,10.63
2022-10-05T08:51:49.662Z,9.02
2022-10-05T08:54:41.557Z,7.60
2022-10-05T08:57:17.411Z,5.10
2022-10-05T09:00:03.368Z,5.72
2022-10-05T09:02:37.156Z,3.20
2022-10-05T09:05:42.459Z,4.82
2022-10-05T09:08:52.516Z,7.15
2022-10-05T09:11:54.573Z,4.18
2022-10-05T09:14:39.127Z,3.03
2022-10-05T09:17:41.783Z,3.78
2022-10-05T09:20:31.003Z,3.78
2022-10-05T09:23:13.893Z,4.40
2022-10-05T09:26:01.140Z,5.50
2022-10-05T09:28:48.711Z,4.05
2022-10-05T09:31:42.552Z,3.80
2022-10-05T09:34:20.766Z,3.00
2022-10-05T09:37:26.827Z,6.00
2022-10-05T09:40:11.269Z,5.03
2022-10-05T09:45:42.933Z,5.63
2022-10-05T09:51:01.298Z,5.43
2022-10-05T09:54:15.975Z,4.95
2022-10-05T09:57:20.032Z,4.53
2022-10-05T10:00:17.782Z,5.00
2022-10-05T10:02:50.401Z,4.65
2022-10-05T10:05:32.287Z,2.90
2022-10-05T10:08:25.005Z,4.47
2022-10-05T10:10:57.255Z,3.95
2022-10-05T10:13:39.335Z,6.60
2022-10-05T10:16:12.174Z,4.25
2022-10-05T10:19:06.626Z,3.15
2022-10-05T10:22:06.077Z,5.80
2022-10-05T10:24:48.748Z,5.78
2022-10-05T10:27:40.367Z,3.25
2022-10-05T10:30:27.511Z,2.83
2022-10-05T10:33:11.551Z,3.00
2022-10-05T10:35:53.673Z,2.70
2022-10-05T10:39:00.601Z,6.63
2022-10-05T10:41:58.319Z,3.67
2022-10-05T10:44:48.319Z,4.68
2022-10-05T10:47:38.264Z,3.58
2022-10-05T10:50:28.778Z,5.57
2022-10-05T10:53:09.926Z,4.00
2022-10-05T10:56:11.942Z,4.10
2022-10-05T10:58:57.311Z,3.22
2022-10-05T11:01:52.690Z,3.30
2022-10-05T11:04:53.880Z,3.17
2022-10-05T11:07:29.282Z,4.15
2022-10-05T11:10:26.512Z,3.63
2022-10-05T11:13:32.142Z,3.00
2022-10-05T11:16:43.424Z,4.97
2022-10-05T11:20:03.022Z,5.95
2022-10-05T11:23:13.709Z,4.05
2022-10-05T11:25:49.323Z,3.50
2022-10-05T11:28:37.602Z,6.25
2022-10-05T11:31:21.535Z,3.13
2022-10-05T11:34:20.692Z,5.43
2022-10-05T11:37:07.701Z,2.70
2022-10-05T11:39:43.776Z,5.88
2022-10-05T11:42:36.685Z,4.05
2022-10-05T11:45:27.728Z,3.35
2022-10-05T11:48:15.856Z,4.00
2022-10-05T11:50:57.841Z,3.40
2022-10-05T11:53:35.172Z,5.38
2022-10-05T11:56:01.804Z,5.93
2022-10-05T11:58:56.031Z,5.32
2022-10-05T12:01:34.583Z,5.97
2022-10-05T12:04:28.803Z,3.83
2022-10-05T12:07:16.747Z,2.20
2022-10-05T12:10:17.101Z,3.92
2022-10-05T12:12:53.759Z,4.35
2022-10-05T12:15:40.780Z,3.05
2022-10-05T12:18:17.891Z,2.95
2022-10-05T12:20:56.338Z,3.72
2022-10-05T12:23:37.297Z,3.55
2022-10-05T12:26:19.768Z,3.85
2022-10-05T12:29:14.142Z,5.10
2022-10-05T12:32:07.400Z,2.83
2022-10-05T12:35:01.927Z,4.05
2022-10-05T12:37:43.375Z,2.33
2022-10-05T12:40:36.285Z,3.88
2022-10-05T12:43:18.892Z,2.63
2022-10-05T12:46:00.597Z,3.72
2022-10-05T12:49:03.070Z,3.35
2022-10-05T12:51:55.871Z,4.10
2022-10-05T12:54:46.448Z,5.63
2022-10-05T12:57:39.989Z,4.63
2022-10-05T13:00:19.018Z,3.30
2022-10-05T13:03:03.668Z,3.88
2022-10-05T13:06:01.767Z,2.90
2022-10-05T13:08:59.504Z,4.65
2022-10-05T13:11:49.381Z,5.00
2022-10-05T13:14:58.300Z,3.30
2022-10-05T13:17:37.323Z,4.97
2022-10-05T13:20:28.208Z,4.45
2022-10-05T13:23:13.490Z,2.92
2022-10-05T13:25:57.380Z,4.65
2022-10-05T13:29:04.577Z,2.85
2022-10-05T13:31:46.678Z,3.53
2022-10-05T13:34:34.034Z,2.80
2022-10-05T13:38:00.256Z,3.72
2022-10-05T13:40:39.259Z,4.53
2022-10-05T13:43:39.782Z,2.28
2022-10-05T13:46:33.355Z,4.05
2022-10-05T13:49:23.842Z,3.28
2022-10-05T13:52:19.962Z,3.10
2022-10-05T13:54:55.267Z,2.50
2022-10-05T13:57:45.297Z,3.38
2022-10-05T14:00:22.741Z,2.65
2022-10-05T14:02:58.207Z,2.85
2022-10-05T14:05:27.754Z,4.50
2022-10-05T14:07:56.022Z,2.88
2022-10-05T14:10:40.075Z,3.25
2022-10-05T14:13:31.550Z,3.38
2022-10-05T14:16:13.814Z,2.17
2022-10-05T14:19:04.441Z,3.25
2022-10-05T14:21:42.868Z,4.00
2022-10-05T14:24:43.806Z,3.70
2022-10-05T14:27:19.072Z,4.38
2022-10-05T14:30:12.870Z,6.68
2022-10-05T14:33:06.005Z,4.07
2022-10-05T14:35:57.814Z,4.43
2022-10-05T14:38:31.228Z,5.03
2022-10-05T14:41:20.836Z,3.95
2022-10-05T14:44:20.897Z,3.47
2022-10-05T14:46:58.780Z,5.25
2022-10-05T14:49:40.530Z,4.80
2022-10-05T14:52:32.577Z,3.90
2022-10-05T14:55:08.473Z,3.92
2022-10-05T14:57:39.840Z,3.17
2022-10-05T15:00:18.028Z,2.85
2022-10-05T15:03:18.092Z,5.93
2022-10-05T15:05:50.757Z,6.13
2022-10-05T15:08:45.206Z,4.85
2022-10-05T15:11:42.565Z,4.45
2022-10-05T15:14:32.302Z,8.18
2022-10-05T15:17:03.395Z,4.20
2022-10-05T15:19:47.289Z,4.25
2022-10-05T15:22:41.834Z,4.65
2022-10-05T15:28:21.524Z,2.50
2022-10-05T15:31:03.893Z,4.68
2022-10-05T15:33:50.069Z,3.72
2022-10-05T15:36:16.997Z,6.15
2022-10-05T15:39:09.047Z,4.00
2022-10-05T15:42:01.480Z,2.50
2022-10-05T15:44:34.284Z,3.15
2022-10-05T15:47:13.856Z,2.92
2022-10-05T15:49:58.643Z,4.72
2022-10-05T15:52:33.896Z,2.97
2022-10-05T15:55:09.393Z,4.20
2022-10-05T15:57:48.652Z,6.93
2022-10-05T16:00:20.801Z,3.75
2022-10-05T16:03:12.656Z,4.47
2022-10-05T16:06:40.879Z,7.45
2022-10-05T16:09:20.027Z,4.72
2022-10-05T16:12:00.111Z,2.65
2022-10-05T16:14:54.666Z,6.82
2022-10-05T16:17:33.253Z,5.90
2022-10-05T16:20:20.732Z,8.65
2022-10-05T16:23:06.054Z,5.10
2022-10-05T16:25:52.354Z,3.58
2022-10-05T16:28:50.468Z,7.40
2022-10-05T16:31:50.515Z,5.03
2022-10-05T16:34:35.874Z,3.17
2022-10-05T16:37:28.235Z,6.05
2022-10-05T16:40:01.591Z,5.53
2022-10-05T16:42:58.155Z,4.35
2022-10-05T16:45:45.367Z,5.88
2022-10-05T16:48:25.032Z,19.60
2022-10-05T16:50:55.153Z,8.93
2022-10-05T16:53:35.283Z,6.72
2022-10-05T16:56:07.656Z,6.35
2022-10-05T16:58:57.105Z,3.67
2022-10-05T17:02:03.394Z,9.05
2022-10-05T17:05:05.880Z,3.55
2022-10-05T17:08:13.953Z,3.22
2022-10-05T17:11:15.996Z,3.13
2022-10-05T17:14:10.372Z,4.18
2022-10-05T17:17:04.356Z,3.22
2022-10-05T17:20:13.415Z,2.92
2022-10-05T17:22:48.683Z,3.63
2022-10-05T17:25:22.591Z,4.55
2022-10-05T17:30:22.813Z,3.65
2022-10-05T17:33:26.457Z,3.97
2022-10-05T17:36:09.536Z,7.43
2022-10-05T17:39:15.108Z,3.95
2022-10-05T17:41:44.274Z,4.28
2022-10-05T17:44:17.098Z,4.47
2022-10-05T17:46:47.756Z,3.17
2022-10-05T17:49:46.933Z,4.65
2022-10-05T17:52:46.390Z,2.58
2022-10-05T17:55:42.521Z,4.13
2022-10-05T17:58:27.693Z,12.50
2022-10-05T18:00:57.793Z,6.68
2022-10-05T18:03:43.192Z,6.90
2022-10-05T18:06:33.588Z,5.43
2022-10-05T18:09:33.059Z,2.78
2022-10-05T18:12:25.381Z,5.55
2022-10-05T18:15:25.410Z,3.42
2022-10-05T18:18:20.874Z,5.00
2022-10-05T18:21:24.333Z,3.22
2022-10-05T18:23:59.885Z,4.43
2022-10-05T18:26:57.334Z,3.20
2022-10-05T18:30:08.896Z,4.22
2022-10-05T18:33:17.439Z,4.32
2022-10-05T18:36:05.573Z,4.68
2022-10-05T18:38:44.353Z,4.22
2022-10-05T18:41:35.095Z,3.28
2022-10-05T18:44:21.716Z,4.50
2022-10-05T18:47:18.505Z,3.42
2022-10-05T18:50:25.620Z,4.20
2022-10-05T18:53:03.347Z,4.75
2022-10-05T18:55:41.894Z,3.13
2022-10-05T18:58:22.240Z,5.57
2022-10-05T19:01:09.970Z,4.53
2022-10-05T19:03:59.272Z,5.72
2022-10-05T19:06:31.400Z,7.25
2022-10-05T19:09:23.130Z,6.07
2022-10-05T19:12:15.442Z,6.63
2022-10-05T19:14:58.287Z,8.00
2022-10-05T19:17:35.637Z,4.70
2022-10-05T19:20:40.205Z,3.08
2022-10-05T19:23:37.562Z,3.03
2022-10-05T19:26:32.178Z,6.25
2022-10-05T19:29:11.820Z,4.07
2022-10-05T19:32:00.071Z,4.03
2022-10-05T19:34:38.266Z,4.22
2022-10-05T19:37:40.833Z,7.45
2022-10-05T19:40:19.664Z,2.90
2022-10-05T19:43:08.792Z,5.45
2022-10-05T19:46:05.499Z,4.75
2022-10-05T19:48:36.631Z,6.13
2022-10-05T19:51:27.678Z,2.78
2022-10-05T19:53:57.187Z,2.95
2022-10-05T19:56:28.745Z,2.92
2022-10-05T19:58:58.283Z,3.03
2022-10-05T20:01:30.899Z,6.68
2022-10-05T20:04:00.796Z,6.03
2022-10-05T20:06:29.426Z,5.78
2022-10-05T20:09:00.016Z,2.72
2022-10-05T20:11:28.359Z,3.42
2022-10-05T20:13:55.149Z,6.18
2022-10-05T20:16:54.745Z,2.63
2022-10-05T20:19:54.292Z,3.55
2022-10-05T20:22:28.461Z,3.47
2022-10-05T20:25:09.142Z,9.52
2022-10-05T20:27:42.969Z,4.03
2022-10-05T20:30:12.658Z,5.63
2022-10-05T20:32:39.639Z,6.97
2022-10-05T20:35:07.023Z,4.82
2022-10-05T20:37:34.062Z,7.93
2022-10-05T20:40:00.860Z,4.32
2022-10-05T20:42:27.519Z,4.57
2022-10-05T20:44:56.993Z,9.02
2022-10-05T20:47:27.048Z,5.75
2022-10-05T20:49:55.844Z,7.78
2022-10-05T20:52:23.333Z,7.28
2022-10-05T20:54:53.891Z,5.47
2022-10-05T20:57:21.305Z,3.55
2022-10-05T20:59:49.581Z,3.22
2022-10-05T21:02:16.506Z,6.88
2022-10-05T21:04:47.524Z,3.28
2022-10-05T21:07:17.765Z,6.45
2022-10-05T21:09:46.507Z,4.00
2022-10-05T21:12:14.352Z,3.17
2022-10-05T21:14:41.073Z,6.28
2022-10-05T21:17:10.717Z,6.28
2022-10-05T21:19:40.697Z,4.60
2022-10-05T21:22:08.890Z,3.78
2022-10-05T21:24:37.001Z,4.63
2022-10-05T21:27:05.022Z,4.93
2022-10-05T21:29:33.037Z,6.00
2022-10-05T21:31:59.959Z,5.45
2022-10-05T21:34:26.669Z,2.80
2022-10-05T21:36:54.276Z,4.38
2022-10-05T21:39:21.002Z,4.05
2022-10-05T21:41:49.835Z,5.45
2022-10-05T21:44:16.826Z,5.07
2022-10-05T21:46:44.763Z,6.53
2022-10-05T21:49:13.340Z,6.88
2022-10-05T21:51:43.189Z,8.45
2022-10-05T21:54:13.013Z,6.00
2022-10-05T21:56:46.936Z,4.25
2022-10-05T22:01:43.003Z,4.55
2022-10-05T22:04:09.728Z,3.30
2022-10-05T22:06:36.724Z,6.72
2022-10-05T22:09:05.192Z,5.63
2022-10-05T22:11:32.920Z,8.13
2022-10-05T22:14:02.967Z,8.00
2022-10-05T22:16:32.964Z,5.88
2022-10-05T22:19:03.720Z,8.10
2022-10-05T22:21:32.797Z,9.10
2022-10-05T22:24:02.405Z,10.25
2022-10-05T22:26:29.606Z,7.35
2022-10-05T22:28:57.670Z,5.45
2022-10-05T22:31:24.482Z,4.97
2022-10-05T22:33:51.885Z,4.22
2022-10-05T22:36:19.706Z,4.70
2022-10-05T22:38:47.804Z,3.42
2022-10-05T22:41:15.414Z,5.10
2022-10-05T22:43:48.598Z,7.22
2022-10-05T22:46:20.648Z,6.10
2022-10-05T22:48:49.685Z,5.93
2022-10-05T22:51:17.042Z,3.03
2022-10-05T22:53:44.978Z,6.65
2022-10-05T22:56:13.837Z,1.90
2022-10-05T22:58:42.461Z,2.75
2022-10-05T23:01:12.663Z,2.35
2022-10-05T23:03:39.581Z,1.58
2022-10-05T23:06:14.547Z,1.80
2022-10-05T23:08:42.381Z,3.03
2022-10-05T23:11:13.177Z,2.88
2022-10-05T23:13:40.600Z,2.50
2022-10-05T23:16:09.326Z,2.65
2022-10-05T23:18:39.292Z,1.40
2022-10-05T23:21:09.827Z,3.63
2022-10-05T23:23:40.543Z,2.55
2022-10-05T23:26:08.601Z,3.08
2022-10-05T23:28:35.352Z,2.47
2022-10-05T23:31:07.299Z,2.70
2022-10-05T23:33:37.169Z,4.70
2022-10-05T23:36:08.024Z,1.05
2022-10-05T23:38:36.143Z,1.63
2022-10-05T23:41:02.984Z,2.53
2022-10-05T23:43:30.006Z,1.95
2022-10-05T23:45:56.826Z,2.05
2022-10-05T23:48:23.945Z,2.72
2022-10-05T23:50:51.625Z,1.08
2022-10-05T23:53:19.120Z,2.33
2022-10-05T23:55:51.425Z,3.58
2022-10-05T23:58:18.502Z,3.60
